West Palm Beach, FL (33409)

11:13 PM EST on February 05, 2016 (GMT -0500)
BANYAN CAY GOLF - Zaretsky Law Group - West Palm Beach | | Change Station
CLOSE
Current Station
Personal Weather Station
Location: West Palm Beach, FL
Elevation: 60 ft
Nearby Weather Stations

Elev 60 ft 26.73 °N, 80.08 °W | Updated 14 minutes ago

Overcast
Overcast
68.5 °F
Feels Like 68.5 °F
N
7.0
Wind Variable Wind from NE
Gusts 14.0 mph

Today
High -- | Low -- °F
--% Chance of Precip.
Yesterday
High -- | Low -- °F
Precip. -- in
Pressure 30.17 in
Visibility 10.0 miles
Clouds Scattered Clouds 3400 ft
Mostly Cloudy 4400 ft
Mostly Cloudy 6000 ft
Dew Point 60 °F
Humidity 74%
Rainfall 0.32 in
Snow Depth Not available.
7:03 AM 6:05 PM
Waning Crescent, 8% visible
METAR KPBI 060353Z 05010KT 10SM SCT034 BKN044 BKN060 21/13 A3017 RMK AO2 SLP215 T02060128 $
Pressure 30.17 in
Visibility 10.0 miles
Clouds Scattered Clouds 3400 ft
Mostly Cloudy 4400 ft
Mostly Cloudy 6000 ft
Dew Point 60 °F
Humidity 74%
Rainfall 0.32 in
Snow Depth Not available.
7:03 AM 6:05 PM
Waning Crescent, 8% visible
METAR KPBI 060353Z 05010KT 10SM SCT034 BKN044 BKN060 21/13 A3017 RMK AO2 SLP215 T02060128 $

10-Day Weather Forecast

Almanac

Astronomy

Feb. 05, 2016 Rise Set
Actual Time
Civil Twilight
Nautical Twilight
Astronomical Twilight
Moon
Length of Visible Light
Length of Day
Tomorrow will be .
, % of the Moon is Illuminated

Today's Extremes

State Highs State Lows

Community

WunderPhotos

Upload Photos

1,890,917 photos uploaded!

WunderBlog® & News

Nearby

Air Quality

  Air Quality AQ Index Pollutant
Not available.

Snow Depth

Station Depth Elevation

Earthquake Activity

City Distance Mag. Time & Date
Minimum magnitude displayed is 2.5.

Coastal Water Temperatures

Place Temperature

Stations

Nearby Weather Stations

Station Location Temp. Windchill Dew Point Humidity Wind Precip. Elev Updated Type
                   

Watches & Warnings

There are currently no watches in effect.